Řízení letového provozu České republiky  
Aktualizace dat:  10.08.2022 16:36:32 UTC English version
   METEO Zobrazení stránky:  10.08.2022 16:38:12 UTC  
vysvětlivky
METAR EDDB 101620Z AUTO VRB03KT CAVOK 28/06 Q1024 NOSIG=
METAR EDDC 101620Z AUTO 06008KT CAVOK 28/07 Q1024 NOSIG=
METAR EDDE 101620Z AUTO 03009KT 350V080 CAVOK 26/07 Q1024 NOSIG=
METAR EDDF 101620Z 07011KT 040V110 CAVOK 31/05 Q1021 NOSIG=
METAR EDDM 101620Z AUTO 06011KT 020V090 CAVOK 25/08 Q1022 BECMG 07006KT=
METAR EDDN 101620Z AUTO 11008KT 080V160 CAVOK 27/05 Q1023 NOSIG=
METAR EDDP 101620Z 07007KT CAVOK 27/10 Q1024 NOSIG=
METAR EDQM 101620Z 08009KT 040V110 CAVOK 24/05 Q1025=
METAR EPBY 101630Z 11004KT 040V160 CAVOK 25/08 Q1025=
METAR EPGD 101630Z 04009KT 010V070 CAVOK 19/14 Q1027=
METAR EPKK 101630Z 02013KT 9999 FEW067 24/09 Q1024=
METAR EPKT 101630Z 01008KT 340V040 CAVOK 23/08 Q1025=
METAR EPLL 101630Z 36008KT CAVOK 23/10 Q1025=
METAR EPPO 101630Z 10003KT 010V160 CAVOK 27/09 Q1025=
METAR EPRZ 101630Z 02010KT CAVOK 23/08 Q1023=
METAR EPWA 101630Z 01007KT 340V040 CAVOK 23/11 Q1025 NOSIG=
METAR EPWR 101630Z 07008KT CAVOK 25/08 Q1025=
METAR LHBP 101630Z 06010KT 010V090 CAVOK 28/08 Q1020 NOSIG=
METAR LHSM 101615Z AUTO 35011KT CAVOK 28/09 Q1020=
METAR LKBC NIL
METAR LKCS 101630Z AUTO 32003KT 270V010 CAVOK 25/09 Q1024=
METAR LKCV 101630Z 05010KT 010V080 CAVOK 26/10 Q1024 NOSIG RMK BLU BLU=
METAR LKKB 101630Z 07004KT 010V110 CAVOK 25/10 Q1024 NOSIG RMK BLU BLU=
METAR LKKU NIL
METAR LKKV 101630Z 07006KT CAVOK 22/06 Q1026=
METAR LKLN 101630Z AUTO VRB03KT 9999 FEW090 26/05 Q1024=
METAR LKMT 101630Z 02010KT CAVOK 23/10 Q1024 NOSIG=
METAR LKNA 101630Z 06010KT 030V090 CAVOK 23/08 Q1024 NOSIG RMK BLU BLU=
METAR LKPD 101630Z 06008KT 030V090 CAVOK 25/09 Q1024 NOSIG RMK BLU BLU=
METAR LKPJ 101630Z AUTO 04008KT 350V070 CAVOK 25/10 Q1024=
METAR LKPR 101630Z 09007KT 050V140 CAVOK 24/09 Q1024 NOSIG=
METAR LKTB 101630Z 04009KT 360V070 CAVOK 25/09 Q1023 NOSIG=
METAR LKVO NIL
METAR LOWI 101620Z 09014KT 9999 FEW070 26/11 Q1020 NOSIG=
METAR LOWL 101620Z AUTO 09008KT 060V120 9999 FEW065 25/09 Q1022 NOSIG=
METAR LOWS 101620Z 04011KT 9999 FEW060 25/10 Q1022 NOSIG=
METAR LOWW 101620Z 36007KT CAVOK 27/09 Q1022 NOSIG=
METAR LZIB 101630Z 34007KT 310V010 CAVOK 28/07 Q1021 NOSIG=
METAR LZKZ 101630Z 05013KT CAVOK 23/10 Q1022 NOSIG=
METAR LZMC NIL
METAR LZPP 101630Z 36014KT CAVOK 27/08 Q1021=
METAR LZSL NIL
METAR LZTT 101630Z 04009KT 9999 SCT066 19/08 Q1024 NOSIG=
METAR LZZI 101630Z 04008KT CAVOK 24/09 Q1023=